Time;durP1;ratioP1;P1;durP2;ratioP2;P2;SDS_P1;SDS_P2;PMS_P1;PMS_P2;Temp;Humidity;BMP_temperature;BMP_pressure;BME280_temperature;BME280_humidity;BME280_pressure;Samples;Min_cycle;Max_cycle;Signal;HPM_P1;HPM_P2
2021/05/29 00:01:14;;;;;;;20.17;18.43;;;;;;;;;;5011548;28;20461;-68
2021/05/29 00:03:42;;;;;;;19.67;17.87;;;;;;;;;;5012180;28;20460;-68
2021/05/29 00:06:08;;;;;;;17.80;15.90;;;;;;;;;;5008541;28;20490;-70
2021/05/29 00:08:35;;;;;;;15.60;14.10;;;;;;;;;;5006776;28;20492;-68
2021/05/29 00:11:02;;;;;;;16.03;14.60;;;;;;;;;;5009108;28;20469;-67
2021/05/29 00:13:29;;;;;;;16.37;14.47;;;;;;;;;;5011930;28;20460;-67
2021/05/29 00:15:56;;;;;;;15.87;14.47;;;;;;;;;;5009225;28;20519;-68
2021/05/29 00:18:24;;;;;;;16.77;15.37;;;;;;;;;;5012236;28;20461;-67
2021/05/29 00:20:52;;;;;;;19.03;17.13;;;;;;;;;;5010950;28;20467;-67
2021/05/29 00:23:19;;;;;;;19.50;17.50;;;;;;;;;;5012086;28;20498;-67
2021/05/29 00:25:46;;;;;;;20.33;18.53;;;;;;;;;;5009632;28;20999;-68
2021/05/29 00:28:13;;;;;;;21.50;19.60;;;;;;;;;;5011243;28;20507;-69
2021/05/29 00:30:40;;;;;;;22.27;20.00;;;;;;;;;;5008880;28;20984;-69
2021/05/29 00:33:07;;;;;;;23.00;20.90;;;;;;;;;;5011071;28;20833;-69
2021/05/29 00:35:34;;;;;;;24.37;22.27;;;;;;;;;;5009725;28;20468;-69
2021/05/29 00:38:01;;;;;;;24.50;22.07;;;;;;;;;;5010231;28;20497;-71
2021/05/29 00:40:28;;;;;;;23.03;20.93;;;;;;;;;;5024463;28;20461;-69
2021/05/29 00:42:54;;;;;;;23.43;21.23;;;;;;;;;;5026913;28;20454;-68
2021/05/29 00:45:21;;;;;;;24.23;21.93;;;;;;;;;;5025049;28;20987;-68
2021/05/29 00:47:48;;;;;;;23.73;21.47;;;;;;;;;;5024912;28;20485;-69
2021/05/29 00:50:15;;;;;;;23.40;21.17;;;;;;;;;;5025691;28;20472;-71
2021/05/29 00:52:42;;;;;;;23.17;21.07;;;;;;;;;;5025499;28;20479;-68
2021/05/29 00:55:11;;;;;;;22.67;20.57;;;;;;;;;;5024740;28;20470;-68
2021/05/29 00:57:42;;;;;;;22.07;19.97;;;;;;;;;;5025482;28;20466;-68
2021/05/29 01:00:09;;;;;;;22.70;20.50;;;;;;;;;;5012668;28;20473;-68
2021/05/29 01:02:36;;;;;;;23.10;20.70;;;;;;;;;;5010975;28;20469;-69
2021/05/29 01:05:03;;;;;;;23.80;20.83;;;;;;;;;;5011023;28;20476;-69
2021/05/29 01:07:30;;;;;;;23.27;21.07;;;;;;;;;;5011056;28;20493;-68
2021/05/29 01:09:56;;;;;;;22.43;20.33;;;;;;;;;;5009668;28;20960;-68
2021/05/29 01:12:24;;;;;;;22.80;20.60;;;;;;;;;;5010638;28;20469;-67
2021/05/29 01:14:54;;;;;;;24.27;21.97;;;;;;;;;;5005020;28;20465;-68
2021/05/29 01:17:21;;;;;;;22.43;20.23;;;;;;;;;;5010961;28;20469;-68
2021/05/29 01:19:48;;;;;;;24.87;22.57;;;;;;;;;;5015982;28;20453;-71
2021/05/29 01:22:15;;;;;;;24.67;22.17;;;;;;;;;;5015104;28;20448;-69
2021/05/29 01:24:42;;;;;;;25.13;22.70;;;;;;;;;;5012851;28;20516;-69
2021/05/29 01:27:09;;;;;;;26.40;23.77;;;;;;;;;;5012154;28;20492;-69
2021/05/29 01:29:36;;;;;;;26.90;24.40;;;;;;;;;;5014565;28;20469;-69
2021/05/29 01:32:06;;;;;;;27.10;24.70;;;;;;;;;;5015650;28;20507;-69
2021/05/29 01:34:37;;;;;;;25.50;23.10;;;;;;;;;;5015756;28;20500;-70
2021/05/29 01:37:04;;;;;;;26.60;23.93;;;;;;;;;;5014179;28;20461;-69
2021/05/29 01:39:32;;;;;;;26.77;24.30;;;;;;;;;;5014847;28;20462;-68
2021/05/29 01:41:59;;;;;;;23.87;21.57;;;;;;;;;;5013023;28;20477;-68
2021/05/29 01:44:26;;;;;;;22.30;20.40;;;;;;;;;;5014170;28;20512;-68
2021/05/29 01:46:53;;;;;;;22.10;20.00;;;;;;;;;;5013910;28;20488;-68
2021/05/29 01:49:20;;;;;;;22.83;20.83;;;;;;;;;;5014076;28;21000;-69
2021/05/29 01:51:47;;;;;;;21.60;19.50;;;;;;;;;;5014945;28;20521;-69
2021/05/29 01:54:14;;;;;;;22.20;20.10;;;;;;;;;;5013050;28;20473;-69
2021/05/29 01:56:42;;;;;;;22.80;20.70;;;;;;;;;;5009833;28;20442;-68
2021/05/29 01:59:08;;;;;;;20.40;18.70;;;;;;;;;;5013182;28;21288;-69
2021/05/29 02:01:35;;;;;;;20.37;18.43;;;;;;;;;;5014666;28;20450;-68
2021/05/29 02:04:02;;;;;;;20.60;18.57;;;;;;;;;;5012954;28;20472;-69
2021/05/29 02:06:28;;;;;;;20.63;18.83;;;;;;;;;;5012853;28;20485;-69
2021/05/29 02:08:55;;;;;;;22.00;20.00;;;;;;;;;;5013003;28;20485;-69
2021/05/29 02:11:21;;;;;;;20.07;18.07;;;;;;;;;;5013496;28;20470;-69
2021/05/29 02:13:49;;;;;;;21.33;19.30;;;;;;;;;;5014733;28;20453;-69
2021/05/29 02:16:16;;;;;;;21.17;19.10;;;;;;;;;;5011386;28;20471;-70
2021/05/29 02:18:42;;;;;;;21.10;19.00;;;;;;;;;;5014505;28;20481;-69
2021/05/29 02:21:10;;;;;;;22.87;20.63;;;;;;;;;;5012774;28;20457;-70
2021/05/29 02:23:39;;;;;;;22.47;20.27;;;;;;;;;;5014958;28;20449;-69
2021/05/29 02:26:07;;;;;;;21.47;19.27;;;;;;;;;;5012450;28;20496;-69
2021/05/29 02:28:34;;;;;;;23.13;20.83;;;;;;;;;;5011831;28;20999;-69
2021/05/29 02:31:02;;;;;;;19.47;17.60;;;;;;;;;;5013132;28;20476;-69
2021/05/29 02:33:29;;;;;;;20.27;18.37;;;;;;;;;;5014505;28;20449;-69
2021/05/29 02:35:56;;;;;;;20.27;17.93;;;;;;;;;;5012129;28;20882;-69
2021/05/29 02:38:23;;;;;;;20.87;18.63;;;;;;;;;;5041622;23;20502;-66
2021/05/29 02:40:50;;;;;;;19.80;17.70;;;;;;;;;;4995703;28;20470;-69
2021/05/29 02:43:16;;;;;;;20.97;18.87;;;;;;;;;;4998928;28;20450;-69
2021/05/29 02:45:43;;;;;;;20.53;18.53;;;;;;;;;;4993783;28;20493;-69
2021/05/29 02:48:11;;;;;;;20.77;18.70;;;;;;;;;;4996149;28;21328;-69
2021/05/29 02:50:39;;;;;;;19.63;17.50;;;;;;;;;;4996324;28;20464;-69
2021/05/29 02:53:06;;;;;;;20.57;18.63;;;;;;;;;;4993624;28;20462;-69
2021/05/29 02:55:32;;;;;;;19.60;17.60;;;;;;;;;;4992845;28;20478;-69
2021/05/29 02:58:00;;;;;;;19.80;17.77;;;;;;;;;;4993188;28;20490;-68
2021/05/29 03:00:27;;;;;;;18.80;16.93;;;;;;;;;;4993964;28;20501;-69
2021/05/29 03:02:54;;;;;;;18.70;17.00;;;;;;;;;;5000694;28;20469;-69
2021/05/29 03:05:22;;;;;;;19.83;17.00;;;;;;;;;;4995222;28;20458;-70
2021/05/29 03:07:51;;;;;;;18.57;16.73;;;;;;;;;;4974816;28;20560;-68
2021/05/29 03:10:18;;;;;;;15.40;13.80;;;;;;;;;;4993728;28;20458;-68
2021/05/29 03:12:46;;;;;;;15.63;14.23;;;;;;;;;;4993488;28;20443;-68
2021/05/29 03:15:14;;;;;;;15.77;14.23;;;;;;;;;;4993095;28;21028;-69
2021/05/29 03:17:42;;;;;;;15.10;13.63;;;;;;;;;;4992398;28;20996;-70
2021/05/29 03:20:11;;;;;;;15.70;14.20;;;;;;;;;;4996799;28;20451;-70
2021/05/29 03:22:38;;;;;;;16.07;14.37;;;;;;;;;;4992833;28;20520;-70
2021/05/29 03:25:06;;;;;;;16.30;14.70;;;;;;;;;;4989674;28;20879;-67
2021/05/29 03:27:33;;;;;;;17.83;16.17;;;;;;;;;;4992572;28;20482;-67
2021/05/29 03:29:59;;;;;;;18.40;16.60;;;;;;;;;;5012935;28;20473;-71
2021/05/29 03:32:26;;;;;;;22.73;19.70;;;;;;;;;;5005046;28;20510;-68
2021/05/29 03:34:53;;;;;;;23.57;21.20;;;;;;;;;;5012620;28;20474;-68
2021/05/29 03:37:19;;;;;;;24.60;22.13;;;;;;;;;;5008564;28;20449;-70
2021/05/29 03:39:47;;;;;;;24.03;21.63;;;;;;;;;;4993773;28;20581;-68
2021/05/29 03:42:13;;;;;;;22.40;20.30;;;;;;;;;;4992684;28;20454;-69
2021/05/29 03:44:40;;;;;;;23.67;21.40;;;;;;;;;;5007869;28;20481;-68
2021/05/29 03:47:07;;;;;;;24.87;22.50;;;;;;;;;;5007864;28;20485;-69
2021/05/29 03:49:33;;;;;;;24.87;22.57;;;;;;;;;;5012986;28;20469;-69
2021/05/29 03:52:00;;;;;;;26.57;23.90;;;;;;;;;;5011693;28;20875;-68
2021/05/29 03:54:27;;;;;;;26.03;23.63;;;;;;;;;;5010417;28;20472;-69
2021/05/29 03:56:54;;;;;;;25.30;22.90;;;;;;;;;;5009439;28;20471;-67
2021/05/29 03:59:21;;;;;;;26.97;24.47;;;;;;;;;;5006365;28;20490;-70
2021/05/29 04:01:48;;;;;;;27.53;24.97;;;;;;;;;;5007544;28;20523;-70
2021/05/29 04:04:15;;;;;;;29.43;26.47;;;;;;;;;;5012671;28;20451;-69
2021/05/29 04:06:41;;;;;;;31.77;28.83;;;;;;;;;;5000171;28;20481;-71
2021/05/29 04:09:09;;;;;;;33.30;30.20;;;;;;;;;;5001910;28;20846;-69
2021/05/29 04:11:36;;;;;;;34.00;31.10;;;;;;;;;;5012731;28;20454;-69
2021/05/29 04:14:03;;;;;;;33.33;30.33;;;;;;;;;;4999629;28;20473;-74
2021/05/29 04:16:30;;;;;;;36.60;33.30;;;;;;;;;;5003810;28;20468;-72
2021/05/29 04:18:57;;;;;;;34.27;31.47;;;;;;;;;;5010523;28;20544;-75
2021/05/29 04:21:23;;;;;;;37.60;34.30;;;;;;;;;;5012509;28;20453;-71
2021/05/29 04:23:50;;;;;;;37.60;34.10;;;;;;;;;;5011042;28;20477;-74
2021/05/29 04:26:17;;;;;;;37.53;34.33;;;;;;;;;;5007557;28;20492;-71
2021/05/29 04:28:43;;;;;;;36.30;33.13;;;;;;;;;;4994552;28;20500;-72
2021/05/29 04:31:11;;;;;;;37.57;34.27;;;;;;;;;;5012419;28;20453;-73
2021/05/29 04:33:37;;;;;;;38.37;34.87;;;;;;;;;;4980960;28;20467;-69
2021/05/29 04:36:04;;;;;;;36.23;33.03;;;;;;;;;;4973184;28;20440;-70
2021/05/29 04:38:31;;;;;;;37.20;33.90;;;;;;;;;;4988977;28;20574;-81
2021/05/29 04:40:57;;;;;;;36.63;33.37;;;;;;;;;;5010528;28;20822;-71
2021/05/29 04:43:24;;;;;;;36.50;33.40;;;;;;;;;;5004173;28;20942;-69
2021/05/29 04:45:51;;;;;;;37.43;33.93;;;;;;;;;;4989548;28;20540;-71
2021/05/29 04:48:18;;;;;;;36.40;33.20;;;;;;;;;;4992179;28;20492;-73
2021/05/29 04:53:30;;;;;;;38.10;34.50;;;;;;;;;;4972975;28;20404;-72
2021/05/29 04:55:58;;;;;;;37.53;34.17;;;;;;;;;;4988927;28;20492;-70
2021/05/29 04:58:25;;;;;;;37.80;34.60;;;;;;;;;;4996035;28;20545;-74
2021/05/29 05:00:51;;;;;;;36.00;32.70;;;;;;;;;;5010397;28;20968;-76
2021/05/29 05:03:19;;;;;;;37.17;33.77;;;;;;;;;;5007733;28;20450;-71
2021/05/29 05:05:46;;;;;;;35.23;32.07;;;;;;;;;;4994733;28;20470;-71
2021/05/29 05:08:12;;;;;;;33.63;30.90;;;;;;;;;;4992007;28;20484;-72
2021/05/29 05:10:39;;;;;;;34.73;31.67;;;;;;;;;;5005378;28;20465;-71
2021/05/29 05:13:05;;;;;;;31.17;28.47;;;;;;;;;;5000380;28;20867;-74
2021/05/29 05:15:32;;;;;;;28.00;25.53;;;;;;;;;;5004352;28;20473;-70
2021/05/29 05:17:59;;;;;;;25.57;23.43;;;;;;;;;;5011751;28;20465;-71
2021/05/29 05:20:27;;;;;;;23.80;21.80;;;;;;;;;;5009580;28;20511;-69
2021/05/29 05:22:53;;;;;;;24.50;22.40;;;;;;;;;;5012145;28;20863;-75
2021/05/29 05:25:20;;;;;;;24.83;22.50;;;;;;;;;;4993145;28;21155;-74
2021/05/29 05:27:47;;;;;;;23.10;21.20;;;;;;;;;;5011069;28;20484;-74
2021/05/29 05:30:14;;;;;;;25.70;23.30;;;;;;;;;;5007477;28;20473;-67
2021/05/29 05:32:43;;;;;;;27.23;24.93;;;;;;;;;;5007996;28;20492;-75
2021/05/29 05:35:13;;;;;;;25.90;23.60;;;;;;;;;;4993378;28;20534;-76
2021/05/29 05:37:40;;;;;;;26.47;24.20;;;;;;;;;;4991578;28;20894;-72
2021/05/29 05:40:07;;;;;;;27.70;25.40;;;;;;;;;;4992045;28;20865;-72
2021/05/29 05:42:34;;;;;;;27.30;24.90;;;;;;;;;;4992500;28;20504;-77
2021/05/29 05:45:01;;;;;;;26.27;23.77;;;;;;;;;;5004350;28;20543;-68
2021/05/29 05:47:28;;;;;;;24.90;22.70;;;;;;;;;;4999391;28;20486;-73
2021/05/29 05:49:54;;;;;;;23.43;21.43;;;;;;;;;;5004969;28;20489;-74
2021/05/29 05:52:21;;;;;;;21.23;19.37;;;;;;;;;;5011682;28;20469;-73
2021/05/29 05:54:48;;;;;;;20.90;19.20;;;;;;;;;;5007945;28;20470;-71
2021/05/29 05:57:15;;;;;;;21.27;19.50;;;;;;;;;;5002518;28;20459;-73
2021/05/29 05:59:42;;;;;;;24.40;22.50;;;;;;;;;;5009525;28;21004;-71
2021/05/29 06:02:09;;;;;;;25.50;23.40;;;;;;;;;;5011914;28;20453;-69
2021/05/29 06:04:36;;;;;;;21.77;19.67;;;;;;;;;;5004206;28;20466;-69
2021/05/29 06:07:03;;;;;;;17.03;15.30;;;;;;;;;;5005628;28;20900;-69
2021/05/29 06:09:29;;;;;;;18.53;16.73;;;;;;;;;;4995907;28;20470;-69
2021/05/29 06:11:57;;;;;;;19.77;18.07;;;;;;;;;;4984840;28;20466;-70
2021/05/29 06:19:54;;;;;;;22.63;20.60;;;;;;;;;;4976455;28;21302;-73
2021/05/29 06:22:21;;;;;;;21.53;19.57;;;;;;;;;;4976363;28;20448;-72
2021/05/29 06:24:48;;;;;;;24.13;22.20;;;;;;;;;;4976170;28;20490;-70
2021/05/29 06:27:15;;;;;;;19.67;18.00;;;;;;;;;;4994578;28;20478;-70
2021/05/29 06:29:42;;;;;;;19.37;17.97;;;;;;;;;;4995774;28;20474;-72
2021/05/29 06:32:12;;;;;;;19.23;17.77;;;;;;;;;;4995933;28;20450;-71
2021/05/29 06:34:39;;;;;;;17.83;16.43;;;;;;;;;;4997134;28;20836;-71
2021/05/29 06:37:05;;;;;;;17.37;15.97;;;;;;;;;;4995032;28;20455;-71
2021/05/29 06:39:32;;;;;;;16.97;15.67;;;;;;;;;;4994862;28;20490;-72
2021/05/29 06:41:58;;;;;;;13.83;12.83;;;;;;;;;;4995266;28;20463;-72
2021/05/29 06:44:26;;;;;;;13.70;12.60;;;;;;;;;;4995604;28;20946;-71
2021/05/29 06:46:53;;;;;;;13.83;12.73;;;;;;;;;;4994807;28;20493;-73
2021/05/29 06:49:21;;;;;;;12.43;11.33;;;;;;;;;;4995112;28;20474;-71
2021/05/29 06:51:54;;;;;;;11.87;10.93;;;;;;;;;;4995462;28;20461;-71
2021/05/29 06:54:26;;;;;;;10.87;9.87;;;;;;;;;;4994608;28;20949;-71
2021/05/29 06:59:38;;;;;;;9.43;8.73;;;;;;;;;;4975752;28;20447;-72
2021/05/29 07:02:05;;;;;;;9.90;9.10;;;;;;;;;;4985548;28;20451;-72
2021/05/29 07:04:32;;;;;;;8.70;8.10;;;;;;;;;;4995343;28;20446;-71
2021/05/29 07:06:58;;;;;;;7.80;7.20;;;;;;;;;;4993578;28;20486;-71
2021/05/29 07:09:25;;;;;;;6.93;6.40;;;;;;;;;;4994408;28;20474;-70
2021/05/29 07:11:52;;;;;;;7.87;7.03;;;;;;;;;;4996552;28;20461;-68
2021/05/29 07:14:18;;;;;;;7.20;6.60;;;;;;;;;;4996029;28;20455;-69
2021/05/29 07:16:47;;;;;;;7.00;6.30;;;;;;;;;;4991530;28;20451;-70
2021/05/29 07:19:14;;;;;;;6.87;5.70;;;;;;;;;;4994357;28;20834;-70
2021/05/29 07:21:41;;;;;;;8.07;5.60;;;;;;;;;;4995971;28;20457;-70
2021/05/29 07:24:08;;;;;;;5.97;5.30;;;;;;;;;;4995612;28;20830;-70
2021/05/29 07:26:35;;;;;;;5.23;4.73;;;;;;;;;;4995941;28;20482;-70
2021/05/29 07:29:01;;;;;;;5.83;5.20;;;;;;;;;;5005575;28;20486;-71
2021/05/29 07:31:28;;;;;;;5.30;4.90;;;;;;;;;;4980212;28;20467;-70
2021/05/29 07:33:56;;;;;;;5.30;4.80;;;;;;;;;;4988387;28;20533;-70
2021/05/29 07:36:23;;;;;;;5.33;4.93;;;;;;;;;;4993414;28;20465;-70
2021/05/29 07:38:50;;;;;;;4.77;4.30;;;;;;;;;;4975045;28;21005;-70
2021/05/29 07:41:16;;;;;;;4.80;4.40;;;;;;;;;;4980879;28;20518;-71
2021/05/29 07:43:43;;;;;;;4.20;3.90;;;;;;;;;;4994599;28;20481;-70
2021/05/29 07:46:10;;;;;;;4.90;4.40;;;;;;;;;;4992970;28;20794;-70
2021/05/29 07:48:38;;;;;;;4.90;4.50;;;;;;;;;;4993665;28;20830;-69
2021/05/29 07:51:06;;;;;;;12.17;6.13;;;;;;;;;;4994047;28;20461;-69
2021/05/29 07:53:34;;;;;;;19.57;9.03;;;;;;;;;;5000735;28;20446;-70
2021/05/29 07:56:01;;;;;;;17.77;7.73;;;;;;;;;;5012790;28;20544;-71
2021/05/29 07:58:28;;;;;;;15.63;7.77;;;;;;;;;;5012996;28;20469;-70
2021/05/29 08:00:55;;;;;;;5.83;4.70;;;;;;;;;;5013159;28;20449;-70
2021/05/29 08:03:22;;;;;;;6.10;4.87;;;;;;;;;;5001930;28;20451;-71
2021/05/29 08:05:51;;;;;;;5.00;4.50;;;;;;;;;;4973959;28;20447;-70
2021/05/29 08:08:18;;;;;;;7.73;4.30;;;;;;;;;;4984393;28;20486;-71
2021/05/29 08:10:46;;;;;;;7.03;4.30;;;;;;;;;;4992693;28;20458;-71
2021/05/29 08:13:12;;;;;;;8.93;4.90;;;;;;;;;;4973995;28;20880;-71
2021/05/29 08:15:39;;;;;;;7.70;4.93;;;;;;;;;;4997557;28;20455;-70
2021/05/29 08:18:06;;;;;;;10.23;5.90;;;;;;;;;;5003213;28;20471;-66
2021/05/29 08:20:33;;;;;;;7.07;4.90;;;;;;;;;;4974377;28;20965;-66
2021/05/29 08:23:00;;;;;;;5.60;4.47;;;;;;;;;;4974437;28;20451;-66
2021/05/29 08:25:27;;;;;;;6.83;4.37;;;;;;;;;;4985540;28;20452;-67
2021/05/29 08:27:54;;;;;;;4.80;4.10;;;;;;;;;;5002289;28;20481;-68
2021/05/29 08:30:20;;;;;;;10.23;4.77;;;;;;;;;;4992607;28;20454;-69
2021/05/29 08:32:47;;;;;;;5.77;5.27;;;;;;;;;;4974667;28;20443;-66
2021/05/29 08:35:14;;;;;;;11.70;6.00;;;;;;;;;;4990181;28;20444;-67
2021/05/29 08:37:42;;;;;;;6.70;6.10;;;;;;;;;;5012804;28;20811;-67
2021/05/29 08:40:10;;;;;;;9.50;5.60;;;;;;;;;;5013600;28;20448;-67
2021/05/29 08:42:37;;;;;;;6.87;5.33;;;;;;;;;;4997961;28;20458;-71
2021/05/29 08:45:04;;;;;;;5.20;4.73;;;;;;;;;;4995555;28;20462;-71
2021/05/29 08:47:31;;;;;;;6.03;4.70;;;;;;;;;;4993455;28;20490;-71
2021/05/29 08:49:58;;;;;;;5.60;5.00;;;;;;;;;;4992251;28;21074;-71
2021/05/29 08:52:24;;;;;;;8.60;4.80;;;;;;;;;;4992898;28;20446;-72
2021/05/29 08:54:51;;;;;;;5.60;4.60;;;;;;;;;;4993041;28;20942;-71
2021/05/29 08:57:18;;;;;;;6.00;4.77;;;;;;;;;;4992074;28;20527;-71
2021/05/29 08:59:47;;;;;;;6.77;6.07;;;;;;;;;;4973639;28;20475;-71
2021/05/29 09:02:14;;;;;;;7.40;6.30;;;;;;;;;;4974342;28;20455;-71
2021/05/29 09:04:55;;;;;;;14.90;13.30;;;;;;;;;;4974315;28;20447;-71
2021/05/29 09:07:25;;;;;;;13.50;12.47;;;;;;;;;;4973151;28;20573;-71
2021/05/29 09:10:12;;;;;;;12.57;11.27;;;;;;;;;;4993186;28;20479;-71
2021/05/29 09:12:38;;;;;;;10.60;8.43;;;;;;;;;;4992975;28;20484;-71
2021/05/29 09:15:07;;;;;;;8.00;7.40;;;;;;;;;;4993249;28;20459;-71
2021/05/29 09:17:38;;;;;;;5.03;4.47;;;;;;;;;;4992097;28;20461;-67
2021/05/29 09:20:07;;;;;;;8.80;7.60;;;;;;;;;;4988960;28;20962;-68
2021/05/29 09:22:38;;;;;;;7.27;6.57;;;;;;;;;;4992121;28;20462;-69
2021/05/29 09:25:16;;;;;;;5.00;4.23;;;;;;;;;;4992576;28;20457;-68
2021/05/29 09:27:53;;;;;;;6.07;4.13;;;;;;;;;;4991758;28;20498;-68
2021/05/29 09:30:35;;;;;;;4.10;3.63;;;;;;;;;;4972981;28;20455;-68
2021/05/29 09:33:19;;;;;;;4.17;3.60;;;;;;;;;;4973130;28;20807;-68
2021/05/29 09:35:48;;;;;;;5.50;5.00;;;;;;;;;;4986682;28;20457;-68
2021/05/29 09:38:15;;;;;;;6.60;4.47;;;;;;;;;;4993804;28;20536;-68
2021/05/29 09:40:49;;;;;;;6.97;6.37;;;;;;;;;;4995968;28;20446;-68
2021/05/29 09:43:15;;;;;;;7.53;6.73;;;;;;;;;;4995871;28;20437;-68
2021/05/29 09:45:42;;;;;;;7.67;7.00;;;;;;;;;;4994858;28;20826;-68
2021/05/29 09:48:14;;;;;;;7.00;6.50;;;;;;;;;;4995434;28;20547;-68
2021/05/29 09:51:01;;;;;;;7.30;6.07;;;;;;;;;;4995521;28;20461;-68
2021/05/29 09:53:28;;;;;;;6.20;5.70;;;;;;;;;;4996199;28;20834;-68
2021/05/29 09:55:55;;;;;;;6.90;6.30;;;;;;;;;;4995170;28;20454;-68
2021/05/29 09:58:22;;;;;;;6.33;5.83;;;;;;;;;;4995134;28;20478;-68
2021/05/29 10:00:50;;;;;;;6.87;6.27;;;;;;;;;;4995446;28;20464;-68
2021/05/29 10:03:17;;;;;;;6.47;5.67;;;;;;;;;;4995538;28;20455;-67
2021/05/29 10:05:48;;;;;;;6.13;5.63;;;;;;;;;;4996162;28;20456;-67
2021/05/29 10:08:17;;;;;;;6.43;5.83;;;;;;;;;;4995991;28;20493;-66
2021/05/29 10:10:44;;;;;;;6.50;5.90;;;;;;;;;;4995456;28;20458;-66
2021/05/29 10:13:11;;;;;;;7.33;6.70;;;;;;;;;;4995216;28;20446;-66
2021/05/29 10:15:38;;;;;;;7.67;6.83;;;;;;;;;;4982069;28;20455;-67
2021/05/29 10:18:06;;;;;;;7.43;6.73;;;;;;;;;;4975369;28;20469;-67
2021/05/29 10:20:34;;;;;;;7.40;6.80;;;;;;;;;;4975569;28;20447;-67
2021/05/29 10:23:01;;;;;;;7.17;6.47;;;;;;;;;;4977484;28;20463;-68
2021/05/29 10:25:29;;;;;;;6.40;5.90;;;;;;;;;;4978997;28;20462;-66
2021/05/29 10:27:56;;;;;;;6.33;5.30;;;;;;;;;;4989648;28;21065;-67
2021/05/29 10:30:24;;;;;;;5.00;4.50;;;;;;;;;;4994926;28;20455;-67
2021/05/29 10:33:08;;;;;;;4.70;4.40;;;;;;;;;;4994745;28;20486;-68
2021/05/29 10:35:35;;;;;;;4.13;3.70;;;;;;;;;;4995139;28;20430;-69
2021/05/29 10:38:02;;;;;;;3.77;3.47;;;;;;;;;;4995318;28;20467;-67
2021/05/29 10:40:33;;;;;;;4.10;3.53;;;;;;;;;;4996052;28;20430;-68
2021/05/29 10:43:08;;;;;;;4.43;4.03;;;;;;;;;;4996056;28;20457;-68
2021/05/29 10:45:35;;;;;;;7.80;4.00;;;;;;;;;;4981806;28;20461;-68
2021/05/29 10:48:02;;;;;;;4.47;4.07;;;;;;;;;;4997283;28;20869;-67
2021/05/29 10:50:53;;;;;;;4.30;3.83;;;;;;;;;;5008276;28;20450;-68
2021/05/29 10:53:34;;;;;;;4.17;3.77;;;;;;;;;;5006911;28;20455;-67
2021/05/29 10:56:16;;;;;;;4.30;3.90;;;;;;;;;;4996786;28;20446;-68
2021/05/29 10:59:07;;;;;;;3.77;3.47;;;;;;;;;;4996701;28;20470;-68
2021/05/29 11:01:51;;;;;;;4.07;3.70;;;;;;;;;;4972243;28;20458;-67
2021/05/29 11:04:23;;;;;;;4.97;4.43;;;;;;;;;;4985376;28;20461;-68
2021/05/29 11:06:51;;;;;;;3.83;3.53;;;;;;;;;;4982602;28;20487;-67
2021/05/29 11:09:38;;;;;;;5.70;3.97;;;;;;;;;;4975493;28;20479;-67
2021/05/29 11:12:05;;;;;;;4.33;3.57;;;;;;;;;;4989018;28;20455;-68
2021/05/29 11:14:47;;;;;;;3.77;3.47;;;;;;;;;;4994617;28;20450;-68
2021/05/29 11:17:15;;;;;;;4.60;4.00;;;;;;;;;;4993753;28;20459;-68
2021/05/29 11:20:00;;;;;;;5.80;5.30;;;;;;;;;;4994902;28;20494;-67
2021/05/29 11:22:27;;;;;;;4.67;4.27;;;;;;;;;;4994333;28;20500;-68
2021/05/29 11:24:59;;;;;;;4.77;4.30;;;;;;;;;;4994829;28;20493;-67
2021/05/29 11:27:27;;;;;;;5.37;4.60;;;;;;;;;;4993365;28;21033;-67
2021/05/29 11:29:54;;;;;;;5.00;4.60;;;;;;;;;;4989013;28;20590;-67
2021/05/29 11:32:42;;;;;;;4.87;4.47;;;;;;;;;;4976231;28;20447;-67
2021/05/29 11:35:17;;;;;;;4.83;4.33;;;;;;;;;;4975020;28;20450;-67
2021/05/29 11:37:54;;;;;;;4.80;4.40;;;;;;;;;;4974617;28;20455;-68
2021/05/29 11:40:21;;;;;;;5.37;4.90;;;;;;;;;;4974696;28;20463;-67
2021/05/29 11:42:51;;;;;;;5.30;4.80;;;;;;;;;;4974910;28;20821;-67
2021/05/29 11:45:18;;;;;;;5.00;4.50;;;;;;;;;;4984652;28;20458;-68
2021/05/29 11:47:45;;;;;;;5.07;4.57;;;;;;;;;;4993630;28;20993;-67
2021/05/29 11:50:16;;;;;;;5.77;5.27;;;;;;;;;;4993789;28;20942;-68
2021/05/29 11:52:46;;;;;;;5.43;4.93;;;;;;;;;;4994154;28;20457;-67
2021/05/29 11:55:14;;;;;;;4.53;4.10;;;;;;;;;;4992549;28;20471;-68
2021/05/29 11:57:56;;;;;;;4.73;4.33;;;;;;;;;;4993893;28;20550;-67
2021/05/29 12:00:23;;;;;;;3.13;2.93;;;;;;;;;;4985604;28;20515;-68
2021/05/29 12:02:50;;;;;;;4.97;4.53;;;;;;;;;;4974623;28;20474;-67
2021/05/29 12:05:18;;;;;;;4.73;3.50;;;;;;;;;;4983962;28;20454;-66
2021/05/29 12:08:09;;;;;;;4.20;3.30;;;;;;;;;;4994062;28;20486;-66
2021/05/29 12:10:48;;;;;;;5.60;5.10;;;;;;;;;;4973838;28;20459;-66
2021/05/29 12:13:21;;;;;;;3.63;3.30;;;;;;;;;;4994258;28;20446;-65
2021/05/29 12:15:53;;;;;;;5.27;4.87;;;;;;;;;;4992995;28;20507;-66
2021/05/29 12:18:20;;;;;;;4.03;3.73;;;;;;;;;;4993909;28;20466;-66
2021/05/29 12:20:57;;;;;;;4.40;4.00;;;;;;;;;;4994153;28;20827;-66
2021/05/29 12:23:24;;;;;;;3.33;3.03;;;;;;;;;;4993594;28;20445;-66
2021/05/29 12:25:51;;;;;;;4.40;3.87;;;;;;;;;;4992412;28;20472;-66
2021/05/29 12:28:18;;;;;;;5.90;5.20;;;;;;;;;;4994072;28;20490;-66
2021/05/29 12:30:44;;;;;;;4.50;4.20;;;;;;;;;;4993600;28;20458;-66
2021/05/29 12:33:21;;;;;;;4.33;3.40;;;;;;;;;;4993765;28;20451;-66
2021/05/29 12:35:48;;;;;;;4.20;3.80;;;;;;;;;;4992580;28;20980;-66
2021/05/29 12:38:16;;;;;;;4.77;4.37;;;;;;;;;;4993638;28;20561;-66
2021/05/29 12:40:55;;;;;;;5.20;4.80;;;;;;;;;;4993228;28;20446;-66
2021/05/29 12:43:22;;;;;;;4.17;3.70;;;;;;;;;;4993782;28;20449;-66
2021/05/29 12:45:48;;;;;;;4.50;4.07;;;;;;;;;;4992849;28;20954;-66
2021/05/29 12:48:16;;;;;;;4.50;4.10;;;;;;;;;;4993354;28;20997;-66
2021/05/29 12:53:25;;;;;;;4.70;4.30;;;;;;;;;;4993661;28;20484;-67
2021/05/29 12:56:06;;;;;;;4.37;4.07;;;;;;;;;;4992104;28;20825;-66
2021/05/29 12:58:33;;;;;;;4.37;4.07;;;;;;;;;;4993596;28;20473;-66
2021/05/29 13:01:14;;;;;;;4.50;4.20;;;;;;;;;;4993166;28;20481;-65
2021/05/29 13:09:27;;;;;;;4.60;4.20;;;;;;;;;;4982648;28;20639;-66
2021/05/29 13:11:53;;;;;;;4.80;4.30;;;;;;;;;;5005699;28;20445;-66
2021/05/29 13:14:28;;;;;;;4.97;4.43;;;;;;;;;;4995026;28;20528;-65
2021/05/29 13:16:55;;;;;;;5.40;5.00;;;;;;;;;;4989931;28;20446;-66
2021/05/29 13:19:23;;;;;;;5.37;4.87;;;;;;;;;;4992059;28;20476;-65
2021/05/29 13:21:50;;;;;;;4.37;3.97;;;;;;;;;;4996689;28;20553;-65
2021/05/29 13:24:32;;;;;;;4.27;3.97;;;;;;;;;;4996705;28;20450;-66
2021/05/29 13:26:59;;;;;;;4.90;4.50;;;;;;;;;;4981138;28;20510;-65
2021/05/29 13:29:26;;;;;;;5.93;5.53;;;;;;;;;;4996419;28;20856;-65
2021/05/29 13:31:53;;;;;;;5.10;4.70;;;;;;;;;;4996830;28;20451;-65
2021/05/29 13:34:19;;;;;;;5.17;4.67;;;;;;;;;;4996497;28;20880;-65
2021/05/29 13:36:46;;;;;;;4.70;4.10;;;;;;;;;;4995549;28;20458;-65
2021/05/29 13:39:16;;;;;;;4.10;3.80;;;;;;;;;;4995845;28;20912;-65
2021/05/29 13:41:42;;;;;;;5.17;4.73;;;;;;;;;;4996870;28;20457;-65
2021/05/29 13:44:10;;;;;;;4.77;4.10;;;;;;;;;;4994826;28;20509;-65
2021/05/29 13:46:37;;;;;;;4.40;4.03;;;;;;;;;;4995502;28;20548;-64
2021/05/29 13:49:04;;;;;;;6.67;6.10;;;;;;;;;;4989423;28;20486;-65
2021/05/29 13:51:31;;;;;;;4.40;4.00;;;;;;;;;;4995995;28;20481;-65
2021/05/29 13:53:59;;;;;;;4.80;4.40;;;;;;;;;;4995899;28;20456;-65
2021/05/29 13:56:26;;;;;;;6.70;6.20;;;;;;;;;;4985843;28;20505;-65
2021/05/29 13:58:53;;;;;;;8.00;7.30;;;;;;;;;;4994527;28;20478;-65
2021/05/29 14:01:21;;;;;;;7.27;6.47;;;;;;;;;;4997023;28;20494;-65
2021/05/29 14:03:47;;;;;;;6.17;5.67;;;;;;;;;;4997810;28;20455;-65
2021/05/29 14:06:14;;;;;;;4.87;4.50;;;;;;;;;;4995787;28;20450;-65
2021/05/29 14:08:41;;;;;;;5.70;5.30;;;;;;;;;;4996183;28;20496;-65
2021/05/29 14:11:09;;;;;;;5.97;5.47;;;;;;;;;;4992343;28;20461;-65
2021/05/29 14:13:36;;;;;;;5.90;4.90;;;;;;;;;;4995956;28;20482;-65
2021/05/29 14:16:03;;;;;;;5.33;4.90;;;;;;;;;;4990524;28;20457;-65
2021/05/29 14:18:30;;;;;;;5.30;4.90;;;;;;;;;;4996469;28;20476;-64
2021/05/29 14:20:57;;;;;;;6.00;5.60;;;;;;;;;;4997294;28;20439;-64
2021/05/29 14:23:24;;;;;;;5.70;5.27;;;;;;;;;;5015105;28;20449;-65
2021/05/29 14:25:50;;;;;;;6.97;6.37;;;;;;;;;;5006572;28;20451;-64
2021/05/29 14:28:17;;;;;;;5.60;5.07;;;;;;;;;;4995650;28;20620;-64
2021/05/29 14:30:44;;;;;;;5.20;4.80;;;;;;;;;;4995859;28;20462;-64
2021/05/29 14:33:11;;;;;;;6.10;5.70;;;;;;;;;;4996607;28;20457;-64
2021/05/29 14:35:38;;;;;;;4.60;4.30;;;;;;;;;;4995153;28;20455;-64
2021/05/29 14:38:05;;;;;;;8.90;8.20;;;;;;;;;;4993394;28;20505;-65
2021/05/29 14:40:31;;;;;;;9.53;8.73;;;;;;;;;;4995712;28;20465;-64
2021/05/29 14:42:58;;;;;;;11.10;7.50;;;;;;;;;;4995654;28;20458;-65
2021/05/29 14:45:25;;;;;;;9.73;8.93;;;;;;;;;;4995908;28;20969;-65
2021/05/29 14:47:51;;;;;;;8.97;8.20;;;;;;;;;;5015352;28;20477;-67
2021/05/29 14:50:18;;;;;;;9.13;8.33;;;;;;;;;;4998963;28;20541;-65
2021/05/29 14:52:46;;;;;;;8.90;8.10;;;;;;;;;;5005251;28;21021;-67
2021/05/29 14:55:13;;;;;;;7.20;6.53;;;;;;;;;;4994675;28;20466;-67
2021/05/29 14:57:39;;;;;;;6.50;5.60;;;;;;;;;;4994370;28;20463;-67